Time;durP1;ratioP1;P1;durP2;ratioP2;P2;SDS_P1;SDS_P2;PMS_P1;PMS_P2;Temp;Humidity;BMP_temperature;BMP_pressure;BME280_temperature;BME280_humidity;BME280_pressure;Samples;Min_cycle;Max_cycle;Signal;HPM_P1;HPM_P2
2022/03/30 00:01:27;;;;;;;44.33;21.63;;;;;;;;;;5063218;28;20084;-64
2022/03/30 00:03:53;;;;;;;47.25;22.48;;;;;;;;;;5064597;28;20045;-63
2022/03/30 00:06:20;;;;;;;42.80;20.90;;;;;;;;;;5060715;28;20391;-63
2022/03/30 00:08:46;;;;;;;38.75;21.77;;;;;;;;;;5055253;28;20041;-63
2022/03/30 00:11:12;;;;;;;44.33;22.42;;;;;;;;;;5054172;28;20140;-63
2022/03/30 00:13:40;;;;;;;39.15;20.88;;;;;;;;;;5050807;28;20079;-64
2022/03/30 00:16:07;;;;;;;39.67;21.30;;;;;;;;;;5056557;28;20371;-62
2022/03/30 00:18:33;;;;;;;45.17;23.73;;;;;;;;;;5057157;28;20102;-66
2022/03/30 00:21:00;;;;;;;38.30;22.52;;;;;;;;;;5055775;28;20132;-62
2022/03/30 00:23:26;;;;;;;40.17;22.75;;;;;;;;;;5058084;28;20078;-63
2022/03/30 00:25:52;;;;;;;40.78;21.92;;;;;;;;;;5053988;28;20406;-63
2022/03/30 00:28:19;;;;;;;39.05;21.52;;;;;;;;;;5059951;28;20048;-62
2022/03/30 00:30:45;;;;;;;45.10;22.83;;;;;;;;;;5054752;28;20045;-63
2022/03/30 00:33:11;;;;;;;44.50;23.10;;;;;;;;;;5057347;28;20051;-63
2022/03/30 00:35:37;;;;;;;37.50;22.27;;;;;;;;;;5057848;28;20515;-64
2022/03/30 00:38:03;;;;;;;44.08;22.83;;;;;;;;;;5062346;28;20037;-64
2022/03/30 00:40:29;;;;;;;37.15;22.48;;;;;;;;;;5063200;28;20101;-63
2022/03/30 00:42:55;;;;;;;33.95;21.23;;;;;;;;;;5064538;28;20044;-64
2022/03/30 00:45:23;;;;;;;43.55;22.13;;;;;;;;;;5042149;28;20064;-64
2022/03/30 00:47:49;;;;;;;35.72;20.67;;;;;;;;;;5052141;28;20570;-63
2022/03/30 00:50:16;;;;;;;41.45;22.20;;;;;;;;;;5055436;28;20064;-64
2022/03/30 00:52:43;;;;;;;38.00;21.00;;;;;;;;;;5058357;28;20651;-63
2022/03/30 00:55:10;;;;;;;39.95;20.98;;;;;;;;;;5055778;28;20041;-63
2022/03/30 00:57:37;;;;;;;38.55;20.75;;;;;;;;;;5038967;28;20466;-64
2022/03/30 01:00:08;;;;;;;39.67;19.48;;;;;;;;;;5057268;28;20048;-64
2022/03/30 01:02:37;;;;;;;32.38;18.08;;;;;;;;;;5055144;28;20079;-63
2022/03/30 01:05:04;;;;;;;45.38;19.70;;;;;;;;;;5056709;28;20040;-63
2022/03/30 01:07:30;;;;;;;41.83;18.55;;;;;;;;;;5054507;28;20634;-64
2022/03/30 01:09:56;;;;;;;31.80;17.08;;;;;;;;;;5055685;28;20056;-64
2022/03/30 01:12:22;;;;;;;31.67;16.95;;;;;;;;;;5058524;28;20037;-64
2022/03/30 01:14:48;;;;;;;38.03;17.50;;;;;;;;;;5055898;28;20033;-64
2022/03/30 01:17:14;;;;;;;30.92;16.15;;;;;;;;;;5062069;28;20032;-64
2022/03/30 01:19:40;;;;;;;34.92;16.70;;;;;;;;;;5058659;28;20395;-64
2022/03/30 01:22:09;;;;;;;34.15;15.30;;;;;;;;;;5047663;28;20128;-64
2022/03/30 01:24:35;;;;;;;39.10;17.13;;;;;;;;;;5058634;28;20088;-63
2022/03/30 01:27:02;;;;;;;35.22;16.48;;;;;;;;;;5064099;28;20657;-63
2022/03/30 01:32:26;;;;;;;31.02;16.17;;;;;;;;;;5056488;28;20722;-65
2022/03/30 01:35:03;;;;;;;32.40;16.67;;;;;;;;;;5057809;28;20044;-62
2022/03/30 01:37:30;;;;;;;38.28;17.05;;;;;;;;;;5057855;28;20500;-64
2022/03/30 01:39:57;;;;;;;33.53;16.30;;;;;;;;;;5058504;28;20084;-64
2022/03/30 01:42:23;;;;;;;32.35;16.42;;;;;;;;;;5047789;28;20879;-64
2022/03/30 01:44:50;;;;;;;31.58;16.63;;;;;;;;;;5055200;28;20143;-64
2022/03/30 01:47:16;;;;;;;35.13;19.15;;;;;;;;;;5058711;28;20055;-66
2022/03/30 01:49:42;;;;;;;35.17;19.67;;;;;;;;;;5060790;28;20050;-64
2022/03/30 01:52:09;;;;;;;41.13;19.52;;;;;;;;;;5061133;28;20064;-64
2022/03/30 01:54:36;;;;;;;34.50;19.88;;;;;;;;;;5059745;28;20037;-64
2022/03/30 01:57:02;;;;;;;37.40;19.90;;;;;;;;;;5055460;28;20414;-65
2022/03/30 01:59:28;;;;;;;37.20;19.35;;;;;;;;;;5057059;28;20084;-64
2022/03/30 02:01:54;;;;;;;42.50;20.92;;;;;;;;;;5034993;28;20752;-62
2022/03/30 02:04:20;;;;;;;32.47;19.17;;;;;;;;;;5036208;28;20028;-63
2022/03/30 02:06:46;;;;;;;43.42;21.50;;;;;;;;;;5047148;28;20103;-64
2022/03/30 02:09:14;;;;;;;42.10;21.45;;;;;;;;;;5055018;28;20487;-64
2022/03/30 02:11:40;;;;;;;40.72;20.63;;;;;;;;;;5038629;28;20064;-66
2022/03/30 02:14:06;;;;;;;42.72;22.08;;;;;;;;;;5053175;28;20478;-64
2022/03/30 02:16:32;;;;;;;43.20;24.20;;;;;;;;;;5048539;28;20500;-63
2022/03/30 02:18:59;;;;;;;41.78;20.85;;;;;;;;;;5055799;28;20049;-64
2022/03/30 02:21:25;;;;;;;17.02;7.25;;;;;;;;;;5045402;28;20044;-64
2022/03/30 02:23:51;;;;;;;4.35;0.43;;;;;;;;;;5050421;28;20041;-63
2022/03/30 02:26:17;;;;;;;3.42;0.30;;;;;;;;;;5054673;28;20072;-63
2022/03/30 02:28:44;;;;;;;2.95;0.20;;;;;;;;;;5068797;28;20076;-64
2022/03/30 02:31:11;;;;;;;2.58;0.20;;;;;;;;;;5052884;28;20102;-64
2022/03/30 02:33:38;;;;;;;2.45;0.70;;;;;;;;;;5041269;28;20055;-63
2022/03/30 02:36:04;;;;;;;3.60;0.70;;;;;;;;;;5054926;28;20035;-64
2022/03/30 02:38:30;;;;;;;3.40;0.80;;;;;;;;;;5058098;28;20033;-63
2022/03/30 02:40:56;;;;;;;4.47;0.95;;;;;;;;;;5064367;28;20045;-64
2022/03/30 02:43:23;;;;;;;1.50;0.68;;;;;;;;;;5058346;28;20044;-63
2022/03/30 02:45:51;;;;;;;2.10;0.40;;;;;;;;;;5056743;28;20514;-63
2022/03/30 02:48:21;;;;;;;2.75;0.30;;;;;;;;;;5060884;28;20048;-63
2022/03/30 02:50:48;;;;;;;1.80;0.20;;;;;;;;;;5061304;28;20052;-64
2022/03/30 02:53:15;;;;;;;1.63;0.20;;;;;;;;;;5056381;28;20041;-63
2022/03/30 02:55:41;;;;;;;0.43;0.10;;;;;;;;;;5057646;28;20040;-63
2022/03/30 02:58:09;;;;;;;1.00;0.20;;;;;;;;;;5043615;28;20498;-64
2022/03/30 03:00:35;;;;;;;1.70;0.20;;;;;;;;;;5050343;28;20041;-63
2022/03/30 03:03:02;;;;;;;0.52;0.20;;;;;;;;;;5059331;28;20601;-63
2022/03/30 03:05:32;;;;;;;3.17;0.30;;;;;;;;;;5058977;28;20324;-64
2022/03/30 03:08:05;;;;;;;1.35;0.10;;;;;;;;;;5056694;28;20045;-63
2022/03/30 03:10:32;;;;;;;0.70;0.00;;;;;;;;;;5055132;28;20426;-64
2022/03/30 03:12:58;;;;;;;0.30;0.10;;;;;;;;;;5047201;28;20037;-63
2022/03/30 03:15:24;;;;;;;1.25;0.13;;;;;;;;;;5058355;28;20575;-64
2022/03/30 03:17:51;;;;;;;1.23;0.10;;;;;;;;;;5048875;28;20583;-63
2022/03/30 03:20:18;;;;;;;0.93;0.10;;;;;;;;;;5048158;28;20133;-65
2022/03/30 03:22:44;;;;;;;1.75;0.10;;;;;;;;;;5061406;28;20119;-63
2022/03/30 03:25:11;;;;;;;1.52;0.17;;;;;;;;;;5059585;28;20071;-63
2022/03/30 03:27:37;;;;;;;0.68;0.10;;;;;;;;;;5059657;28;20110;-65
2022/03/30 03:30:05;;;;;;;1.08;0.20;;;;;;;;;;5058781;28;20084;-64
2022/03/30 03:32:31;;;;;;;0.70;0.20;;;;;;;;;;5064816;28;20044;-63
2022/03/30 03:34:57;;;;;;;0.50;0.20;;;;;;;;;;5045035;28;20036;-64
2022/03/30 03:37:23;;;;;;;0.65;0.20;;;;;;;;;;5061034;28;20403;-64
2022/03/30 03:39:49;;;;;;;0.90;0.30;;;;;;;;;;5053227;28;20049;-63
2022/03/30 03:42:18;;;;;;;1.10;0.30;;;;;;;;;;5055857;28;20039;-63
2022/03/30 03:44:44;;;;;;;1.02;0.20;;;;;;;;;;5058360;28;20065;-63
2022/03/30 03:47:11;;;;;;;1.35;0.25;;;;;;;;;;5064051;28;20040;-65
2022/03/30 03:49:37;;;;;;;0.98;0.25;;;;;;;;;;5060358;28;20445;-64
2022/03/30 03:52:04;;;;;;;1.05;0.30;;;;;;;;;;5057791;28;20044;-62
2022/03/30 03:54:31;;;;;;;1.20;0.15;;;;;;;;;;5057866;28;20080;-62
2022/03/30 03:56:57;;;;;;;0.43;0.10;;;;;;;;;;5059462;28;20465;-63
2022/03/30 03:59:23;;;;;;;1.38;0.20;;;;;;;;;;5056285;28;20388;-63
2022/03/30 04:01:49;;;;;;;0.22;0.10;;;;;;;;;;5060670;28;20036;-63
2022/03/30 04:04:16;;;;;;;0.50;0.10;;;;;;;;;;5057412;28;20045;-62
2022/03/30 04:06:42;;;;;;;0.30;0.10;;;;;;;;;;5058062;28;20390;-64
2022/03/30 04:09:08;;;;;;;0.45;0.10;;;;;;;;;;5056521;28;20089;-63
2022/03/30 04:11:34;;;;;;;0.30;0.10;;;;;;;;;;5057461;28;20087;-63
2022/03/30 04:14:00;;;;;;;0.95;0.10;;;;;;;;;;5058361;28;20078;-62
2022/03/30 04:16:27;;;;;;;1.75;0.10;;;;;;;;;;5064861;28;20076;-64
2022/03/30 04:18:53;;;;;;;0.50;0.10;;;;;;;;;;5057601;28;20036;-63
2022/03/30 04:21:19;;;;;;;0.75;0.20;;;;;;;;;;5052931;28;20154;-63
2022/03/30 04:23:45;;;;;;;1.10;0.10;;;;;;;;;;5054317;28;20091;-63
2022/03/30 04:26:11;;;;;;;0.32;0.10;;;;;;;;;;5055666;28;20045;-65
2022/03/30 04:28:40;;;;;;;1.95;0.20;;;;;;;;;;5058708;28;20052;-63
2022/03/30 04:31:09;;;;;;;0.60;0.10;;;;;;;;;;5059269;28;20103;-64
2022/03/30 04:33:36;;;;;;;1.10;0.20;;;;;;;;;;5054703;28;20041;-64
2022/03/30 04:36:03;;;;;;;0.95;0.20;;;;;;;;;;5055558;28;20056;-63
2022/03/30 04:38:29;;;;;;;1.40;0.13;;;;;;;;;;5056162;28;20036;-65
2022/03/30 04:40:55;;;;;;;0.63;0.15;;;;;;;;;;5059617;28;20065;-64
2022/03/30 04:43:21;;;;;;;0.40;0.10;;;;;;;;;;5052877;28;20036;-65
2022/03/30 04:45:48;;;;;;;2.40;0.20;;;;;;;;;;5059589;28;20057;-64
2022/03/30 04:48:14;;;;;;;1.25;0.20;;;;;;;;;;5058152;28;20040;-63
2022/03/30 04:50:40;;;;;;;3.30;0.30;;;;;;;;;;5043334;28;20037;-64
2022/03/30 04:53:06;;;;;;;3.85;0.20;;;;;;;;;;5044510;28;20191;-64
2022/03/30 04:55:32;;;;;;;2.53;0.32;;;;;;;;;;5061093;28;20051;-64
2022/03/30 04:57:58;;;;;;;2.17;0.40;;;;;;;;;;5053665;28;20037;-65
2022/03/30 05:00:24;;;;;;;2.65;0.50;;;;;;;;;;5042368;28;20037;-64
2022/03/30 05:02:51;;;;;;;2.70;0.40;;;;;;;;;;5059509;28;20045;-63
2022/03/30 05:05:17;;;;;;;1.75;0.40;;;;;;;;;;5062806;28;20120;-63
2022/03/30 05:07:43;;;;;;;2.95;0.60;;;;;;;;;;5058860;28;20035;-63
2022/03/30 05:10:10;;;;;;;3.72;0.50;;;;;;;;;;5054612;28;20060;-62
2022/03/30 05:12:37;;;;;;;3.00;0.45;;;;;;;;;;5059482;28;20052;-63
2022/03/30 05:15:03;;;;;;;4.18;0.50;;;;;;;;;;5059960;28;20090;-64
2022/03/30 05:17:29;;;;;;;3.20;0.52;;;;;;;;;;5061314;28;20087;-64
2022/03/30 05:19:55;;;;;;;5.75;0.98;;;;;;;;;;5057823;28;20063;-62
2022/03/30 05:22:22;;;;;;;3.85;0.40;;;;;;;;;;5057725;28;20518;-64
2022/03/30 05:24:48;;;;;;;6.45;0.50;;;;;;;;;;5057435;28;20127;-63
2022/03/30 05:27:14;;;;;;;2.22;0.40;;;;;;;;;;5056021;28;20040;-62
2022/03/30 05:29:40;;;;;;;3.42;0.30;;;;;;;;;;5062974;28;20434;-63
2022/03/30 05:32:06;;;;;;;4.00;0.70;;;;;;;;;;5054108;28;20047;-63
2022/03/30 05:34:32;;;;;;;3.28;0.40;;;;;;;;;;5056747;28;20048;-63
2022/03/30 05:36:58;;;;;;;3.15;0.40;;;;;;;;;;5055431;28;20044;-64
2022/03/30 05:39:25;;;;;;;4.60;0.47;;;;;;;;;;5057671;28;20033;-63
2022/03/30 05:41:54;;;;;;;4.45;0.45;;;;;;;;;;5062416;28;20642;-63
2022/03/30 05:44:20;;;;;;;3.97;0.50;;;;;;;;;;5055425;28;20418;-63
2022/03/30 05:46:46;;;;;;;4.78;0.40;;;;;;;;;;5050063;28;20037;-63
2022/03/30 05:49:12;;;;;;;5.53;0.50;;;;;;;;;;5054805;28;20127;-63
2022/03/30 05:51:38;;;;;;;1.52;0.20;;;;;;;;;;5053176;28;20045;-64
2022/03/30 05:54:05;;;;;;;1.95;0.50;;;;;;;;;;5071109;28;20037;-63
2022/03/30 05:59:15;;;;;;;2.00;0.20;;;;;;;;;;5058978;28;20489;-63
2022/03/30 06:01:42;;;;;;;1.77;0.30;;;;;;;;;;5055863;28;20049;-63
2022/03/30 06:04:08;;;;;;;5.18;0.38;;;;;;;;;;5070060;28;20037;-64
2022/03/30 06:06:34;;;;;;;2.33;0.40;;;;;;;;;;5076006;28;20128;-63
2022/03/30 06:09:01;;;;;;;3.95;0.50;;;;;;;;;;5057059;28;20040;-63
2022/03/30 06:11:27;;;;;;;3.40;0.30;;;;;;;;;;5055146;28;20045;-63
2022/03/30 06:13:53;;;;;;;2.72;0.17;;;;;;;;;;5066530;28;20044;-62
2022/03/30 06:16:19;;;;;;;3.40;0.43;;;;;;;;;;5063587;28;20098;-64
2022/03/30 06:18:45;;;;;;;4.22;0.40;;;;;;;;;;5072906;28;20131;-64
2022/03/30 06:21:11;;;;;;;2.20;0.40;;;;;;;;;;5070859;28;20049;-64
2022/03/30 06:23:37;;;;;;;4.13;0.40;;;;;;;;;;5060641;28;20078;-64
2022/03/30 06:26:05;;;;;;;5.30;0.50;;;;;;;;;;5039613;28;20398;-63
2022/03/30 06:28:31;;;;;;;4.03;0.60;;;;;;;;;;5072712;28;20048;-63
2022/03/30 06:30:57;;;;;;;3.55;0.50;;;;;;;;;;5074220;28;20761;-64
2022/03/30 06:33:23;;;;;;;3.70;0.30;;;;;;;;;;5070054;28;20592;-64
2022/03/30 06:35:49;;;;;;;3.17;0.20;;;;;;;;;;5069541;28;20045;-64
2022/03/30 06:38:15;;;;;;;5.05;0.20;;;;;;;;;;5067331;28;20037;-64
2022/03/30 06:40:44;;;;;;;6.75;0.20;;;;;;;;;;5046701;28;20037;-63
2022/03/30 06:43:10;;;;;;;5.63;0.60;;;;;;;;;;5056206;28;20506;-63
2022/03/30 06:45:36;;;;;;;4.22;0.30;;;;;;;;;;5054333;28;20135;-63
2022/03/30 06:48:02;;;;;;;5.47;0.63;;;;;;;;;;5066099;28;20043;-64
2022/03/30 06:50:32;;;;;;;3.03;0.40;;;;;;;;;;5058572;28;20553;-62
2022/03/30 06:52:58;;;;;;;6.93;1.02;;;;;;;;;;5056033;28;20071;-62
2022/03/30 06:55:24;;;;;;;5.82;0.45;;;;;;;;;;5058306;28;20060;-63
2022/03/30 06:57:50;;;;;;;4.70;0.30;;;;;;;;;;5071603;28;20055;-63
2022/03/30 07:00:17;;;;;;;6.88;0.20;;;;;;;;;;5064864;28;20091;-62
2022/03/30 07:02:43;;;;;;;4.47;0.30;;;;;;;;;;5070321;28;20052;-61
2022/03/30 07:05:10;;;;;;;3.78;0.30;;;;;;;;;;5070316;28;20048;-62
2022/03/30 07:10:23;;;;;;;4.28;0.40;;;;;;;;;;5060138;28;20048;-63
2022/03/30 07:12:50;;;;;;;6.22;0.50;;;;;;;;;;5069227;28;20040;-63
2022/03/30 07:15:17;;;;;;;4.22;0.57;;;;;;;;;;5050567;28;20053;-64
2022/03/30 07:17:47;;;;;;;6.25;0.60;;;;;;;;;;5057097;28;20173;-64
2022/03/30 07:20:14;;;;;;;4.93;0.30;;;;;;;;;;5070560;28;20097;-63
2022/03/30 07:22:41;;;;;;;3.08;0.40;;;;;;;;;;5057514;28;20037;-63
2022/03/30 07:25:08;;;;;;;3.50;0.60;;;;;;;;;;5068569;28;20059;-63
2022/03/30 07:27:34;;;;;;;6.13;0.40;;;;;;;;;;5051650;28;20155;-65
2022/03/30 07:30:00;;;;;;;4.45;0.50;;;;;;;;;;5062199;28;20045;-62
2022/03/30 07:32:26;;;;;;;6.10;0.60;;;;;;;;;;5068820;28;20051;-62
2022/03/30 07:34:53;;;;;;;2.75;0.43;;;;;;;;;;5056964;28;20037;-62
2022/03/30 07:37:20;;;;;;;6.90;0.50;;;;;;;;;;5057983;28;20047;-63
2022/03/30 07:39:46;;;;;;;2.90;0.35;;;;;;;;;;5067130;28;20441;-63
2022/03/30 07:42:12;;;;;;;7.00;0.73;;;;;;;;;;5064552;28;20068;-62
2022/03/30 07:44:38;;;;;;;7.50;0.65;;;;;;;;;;5063662;28;20514;-63
2022/03/30 07:47:05;;;;;;;6.10;0.40;;;;;;;;;;5058257;28;20037;-63
2022/03/30 07:49:31;;;;;;;6.18;0.40;;;;;;;;;;5041383;28;20045;-64
2022/03/30 07:52:00;;;;;;;10.65;0.43;;;;;;;;;;5051268;28;20114;-64
2022/03/30 07:54:26;;;;;;;6.88;0.80;;;;;;;;;;5067975;28;20050;-62
2022/03/30 07:56:52;;;;;;;2.45;0.20;;;;;;;;;;5068030;28;20123;-64
2022/03/30 07:59:18;;;;;;;8.45;0.50;;;;;;;;;;5054255;28;20128;-63
2022/03/30 08:01:45;;;;;;;5.20;0.40;;;;;;;;;;5068287;28;20063;-64
2022/03/30 08:04:11;;;;;;;6.95;0.70;;;;;;;;;;5052316;28;20048;-64
2022/03/30 08:06:37;;;;;;;7.45;0.68;;;;;;;;;;5068091;28;20371;-65
2022/03/30 08:09:03;;;;;;;3.30;0.38;;;;;;;;;;5069954;28;20037;-64
2022/03/30 08:11:30;;;;;;;5.50;0.40;;;;;;;;;;5068465;28;20060;-63
2022/03/30 08:13:56;;;;;;;6.03;0.60;;;;;;;;;;5070356;28;20040;-64
2022/03/30 08:16:23;;;;;;;5.40;0.50;;;;;;;;;;5070219;28;20079;-63
2022/03/30 08:18:49;;;;;;;2.78;0.40;;;;;;;;;;5069939;28;20036;-63
2022/03/30 08:24:02;;;;;;;6.13;0.50;;;;;;;;;;5069023;28;20048;-63
2022/03/30 08:26:28;;;;;;;4.22;0.50;;;;;;;;;;5068667;28;20048;-64
2022/03/30 08:28:55;;;;;;;3.38;0.40;;;;;;;;;;5070215;28;20127;-62
2022/03/30 08:31:21;;;;;;;4.97;0.40;;;;;;;;;;5068699;28;20056;-63
2022/03/30 08:33:47;;;;;;;4.00;0.50;;;;;;;;;;5069699;28;20556;-62
2022/03/30 08:36:13;;;;;;;4.40;0.50;;;;;;;;;;5069727;28;20124;-63
2022/03/30 08:38:39;;;;;;;5.70;0.65;;;;;;;;;;5068617;28;20044;-63
2022/03/30 08:41:05;;;;;;;3.33;0.52;;;;;;;;;;5052073;28;20083;-64
2022/03/30 08:43:32;;;;;;;5.40;0.40;;;;;;;;;;5069722;28;20070;-64
2022/03/30 08:46:00;;;;;;;2.40;0.47;;;;;;;;;;5068255;28;20060;-63
2022/03/30 08:48:27;;;;;;;2.90;0.30;;;;;;;;;;5068641;28;20052;-62
2022/03/30 08:50:53;;;;;;;3.10;0.40;;;;;;;;;;5068367;28;20052;-63
2022/03/30 08:53:19;;;;;;;3.72;0.40;;;;;;;;;;5068278;28;20560;-62
2022/03/30 08:55:45;;;;;;;2.63;0.30;;;;;;;;;;5070256;28;20326;-62
2022/03/30 08:58:12;;;;;;;3.75;0.50;;;;;;;;;;5071528;28;20040;-61
2022/03/30 09:00:38;;;;;;;3.88;0.50;;;;;;;;;;5070302;28;20052;-62
2022/03/30 09:03:07;;;;;;;2.95;0.30;;;;;;;;;;5071058;28;20041;-62
2022/03/30 09:05:35;;;;;;;3.70;0.28;;;;;;;;;;5070971;28;20102;-61
2022/03/30 09:08:09;;;;;;;4.50;0.30;;;;;;;;;;5071123;28;20398;-62
2022/03/30 09:10:36;;;;;;;2.70;0.32;;;;;;;;;;5069958;28;20044;-62
2022/03/30 09:13:03;;;;;;;4.63;0.40;;;;;;;;;;5070042;28;20505;-65
2022/03/30 09:15:29;;;;;;;4.20;0.57;;;;;;;;;;5069030;28;20051;-64
2022/03/30 09:18:02;;;;;;;2.28;0.40;;;;;;;;;;5069593;28;20497;-64
2022/03/30 09:20:29;;;;;;;5.50;0.40;;;;;;;;;;5070590;28;20043;-63
2022/03/30 09:22:56;;;;;;;4.70;0.50;;;;;;;;;;5070901;28;20044;-64
2022/03/30 09:25:23;;;;;;;5.75;0.50;;;;;;;;;;5069108;28;20083;-63
2022/03/30 09:27:52;;;;;;;2.97;0.30;;;;;;;;;;5052319;28;20052;-64
2022/03/30 09:30:19;;;;;;;4.30;0.30;;;;;;;;;;5070478;28;20044;-63
2022/03/30 09:32:46;;;;;;;4.38;0.50;;;;;;;;;;5070576;28;20444;-62
2022/03/30 09:35:19;;;;;;;2.85;0.50;;;;;;;;;;5068931;28;20048;-64
2022/03/30 09:37:45;;;;;;;2.58;0.30;;;;;;;;;;5069201;28;20075;-64
2022/03/30 09:40:12;;;;;;;5.10;0.30;;;;;;;;;;5070415;28;20044;-64
2022/03/30 09:42:38;;;;;;;2.85;0.40;;;;;;;;;;5070242;28;20106;-64
2022/03/30 09:45:05;;;;;;;5.00;0.30;;;;;;;;;;5052453;28;20061;-64
2022/03/30 09:47:39;;;;;;;4.20;0.30;;;;;;;;;;5069134;28;20098;-63
2022/03/30 09:50:07;;;;;;;5.47;0.30;;;;;;;;;;5068994;28;20473;-64
2022/03/30 09:52:33;;;;;;;3.05;0.40;;;;;;;;;;5069565;28;20040;-62
2022/03/30 09:55:01;;;;;;;1.60;0.30;;;;;;;;;;5069201;28;20048;-63
2022/03/30 09:57:50;;;;;;;3.97;0.75;;;;;;;;;;5071094;28;20042;-63
2022/03/30 10:00:18;;;;;;;5.22;1.13;;;;;;;;;;5071153;28;20052;-62
2022/03/30 10:02:44;;;;;;;8.07;0.50;;;;;;;;;;5070474;28;20339;-62
2022/03/30 10:05:11;;;;;;;4.63;0.30;;;;;;;;;;5070475;28;20094;-62
2022/03/30 10:07:37;;;;;;;3.65;0.22;;;;;;;;;;5068831;28;20490;-62
2022/03/30 10:10:04;;;;;;;2.63;0.30;;;;;;;;;;5070367;28;20047;-62
2022/03/30 10:12:30;;;;;;;4.38;0.40;;;;;;;;;;5070016;28;20093;-62
2022/03/30 10:14:56;;;;;;;6.35;0.30;;;;;;;;;;5067468;28;20551;-62
2022/03/30 10:17:24;;;;;;;4.80;0.52;;;;;;;;;;5067514;28;20398;-64
2022/03/30 10:19:52;;;;;;;3.88;0.30;;;;;;;;;;5057607;28;20044;-63
2022/03/30 10:22:37;;;;;;;5.05;0.30;;;;;;;;;;5071871;28;20098;-63
2022/03/30 10:25:24;;;;;;;4.22;0.30;;;;;;;;;;5087247;28;20486;-63
2022/03/30 10:27:55;;;;;;;3.13;0.45;;;;;;;;;;5058919;28;20053;-63
2022/03/30 10:30:26;;;;;;;8.10;0.40;;;;;;;;;;5059520;28;20170;-64
2022/03/30 10:32:57;;;;;;;5.28;0.40;;;;;;;;;;5055864;28;20379;-63
2022/03/30 10:35:36;;;;;;;7.18;0.50;;;;;;;;;;5059910;28;20050;-63
2022/03/30 10:38:02;;;;;;;5.90;0.30;;;;;;;;;;5056531;28;20052;-65
2022/03/30 10:40:28;;;;;;;4.53;0.30;;;;;;;;;;5047895;28;20048;-63
2022/03/30 10:42:54;;;;;;;3.72;0.30;;;;;;;;;;5062654;28;20037;-63
2022/03/30 10:45:33;;;;;;;3.03;0.20;;;;;;;;;;5055221;28;20471;-61
2022/03/30 10:48:21;;;;;;;2.20;0.20;;;;;;;;;;5059417;28;20059;-62
2022/03/30 10:50:50;;;;;;;2.30;0.30;;;;;;;;;;5057573;28;20090;-62
2022/03/30 10:56:24;;;;;;;5.05;0.30;;;;;;;;;;5060163;28;20392;-61
2022/03/30 10:58:55;;;;;;;4.13;0.20;;;;;;;;;;5060352;28;20048;-62
2022/03/30 11:01:25;;;;;;;5.13;0.30;;;;;;;;;;5064795;28;20086;-62
2022/03/30 11:03:55;;;;;;;4.20;0.40;;;;;;;;;;5075222;28;20060;-62
2022/03/30 11:06:21;;;;;;;4.53;0.30;;;;;;;;;;5092014;28;20505;-63
2022/03/30 11:08:51;;;;;;;4.38;0.35;;;;;;;;;;5074145;28;20083;-62
2022/03/30 11:11:22;;;;;;;4.10;0.30;;;;;;;;;;5071517;28;20429;-61
2022/03/30 11:13:48;;;;;;;3.85;0.30;;;;;;;;;;5057629;28;20130;-62
2022/03/30 11:16:15;;;;;;;6.07;0.40;;;;;;;;;;5055717;28;20048;-62
2022/03/30 11:18:54;;;;;;;4.38;0.40;;;;;;;;;;5060491;28;20115;-64
2022/03/30 11:21:20;;;;;;;7.63;0.30;;;;;;;;;;5062999;28;20041;-62
2022/03/30 11:24:13;;;;;;;5.07;0.45;;;;;;;;;;5064228;28;20063;-64
2022/03/30 11:26:48;;;;;;;7.65;0.35;;;;;;;;;;5043885;28;20442;-63
2022/03/30 11:29:33;;;;;;;4.22;0.25;;;;;;;;;;5065459;28;20052;-62
2022/03/30 11:31:59;;;;;;;5.80;0.30;;;;;;;;;;5067868;28;20514;-63
2022/03/30 11:34:36;;;;;;;5.25;0.30;;;;;;;;;;5058808;28;20044;-64
2022/03/30 11:37:02;;;;;;;5.38;0.20;;;;;;;;;;5062858;28;20040;-63
2022/03/30 11:39:33;;;;;;;5.13;0.28;;;;;;;;;;5052017;28;20080;-64
2022/03/30 11:42:00;;;;;;;4.57;0.30;;;;;;;;;;5060377;28;20466;-63
2022/03/30 11:47:13;;;;;;;5.13;0.45;;;;;;;;;;5053866;28;20053;-65
2022/03/30 11:49:59;;;;;;;5.65;0.22;;;;;;;;;;5055560;28;20044;-63
2022/03/30 11:52:25;;;;;;;4.57;0.28;;;;;;;;;;5061994;28;20047;-63
2022/03/30 11:54:53;;;;;;;8.15;0.40;;;;;;;;;;5059381;28;20449;-63
2022/03/30 11:57:19;;;;;;;5.13;0.40;;;;;;;;;;5048179;28;20508;-63
2022/03/30 12:00:00;;;;;;;3.67;0.20;;;;;;;;;;5064079;28;20445;-64
2022/03/30 12:02:26;;;;;;;3.78;0.20;;;;;;;;;;5055752;28;20521;-63
2022/03/30 12:04:53;;;;;;;4.07;0.30;;;;;;;;;;5083230;28;20041;-63
2022/03/30 12:07:19;;;;;;;5.22;0.30;;;;;;;;;;5083342;28;20614;-63
2022/03/30 12:09:46;;;;;;;4.00;0.25;;;;;;;;;;5050060;28;20048;-63
2022/03/30 12:12:12;;;;;;;5.10;0.30;;;;;;;;;;5049033;28;20418;-62
2022/03/30 12:14:40;;;;;;;5.90;0.20;;;;;;;;;;5050806;28;20461;-64
2022/03/30 12:17:06;;;;;;;4.75;0.40;;;;;;;;;;5050561;28;20040;-64
2022/03/30 12:19:32;;;;;;;6.55;0.30;;;;;;;;;;5049120;28;20507;-63
2022/03/30 12:22:05;;;;;;;5.95;0.30;;;;;;;;;;5065698;28;20049;-63
2022/03/30 12:24:35;;;;;;;3.28;0.20;;;;;;;;;;5082824;28;20507;-63
2022/03/30 12:27:01;;;;;;;3.45;0.35;;;;;;;;;;5050340;28;20045;-63
2022/03/30 12:29:30;;;;;;;2.80;0.30;;;;;;;;;;5082538;28;20049;-63
2022/03/30 12:31:57;;;;;;;4.53;0.30;;;;;;;;;;5050276;28;20041;-63
2022/03/30 12:34:23;;;;;;;4.13;0.40;;;;;;;;;;5065087;28;20115;-64
2022/03/30 12:36:58;;;;;;;3.60;0.22;;;;;;;;;;5082297;28;20053;-63
2022/03/30 12:39:25;;;;;;;2.92;0.20;;;;;;;;;;5082473;28;20094;-64
2022/03/30 12:42:02;;;;;;;3.05;0.20;;;;;;;;;;5048581;28;20048;-63
2022/03/30 12:44:29;;;;;;;2.75;0.20;;;;;;;;;;5049852;28;20052;-63
2022/03/30 12:46:58;;;;;;;4.93;0.30;;;;;;;;;;5082185;28;20084;-64
2022/03/30 12:49:35;;;;;;;3.90;0.40;;;;;;;;;;5048587;28;20040;-63
2022/03/30 12:52:05;;;;;;;3.22;0.30;;;;;;;;;;5049812;28;20041;-64
2022/03/30 12:54:31;;;;;;;5.03;0.40;;;;;;;;;;5050356;28;20110;-64
2022/03/30 12:56:57;;;;;;;4.80;0.30;;;;;;;;;;5082366;28;20296;-64
2022/03/30 12:59:25;;;;;;;3.83;0.20;;;;;;;;;;5082637;28;20479;-64
2022/03/30 13:01:51;;;;;;;3.10;0.35;;;;;;;;;;5082294;28;20127;-64
2022/03/30 13:04:18;;;;;;;2.70;0.20;;;;;;;;;;5049760;28;20673;-64
2022/03/30 13:07:03;;;;;;;4.28;0.20;;;;;;;;;;5048835;28;20052;-64
2022/03/30 13:09:29;;;;;;;3.30;0.30;;;;;;;;;;5031752;28;20048;-63
2022/03/30 13:11:57;;;;;;;3.70;0.30;;;;;;;;;;5050151;28;20093;-64
2022/03/30 13:14:25;;;;;;;4.28;0.20;;;;;;;;;;5065132;28;20045;-65
2022/03/30 13:17:09;;;;;;;3.22;0.20;;;;;;;;;;5082463;28;20048;-65
2022/03/30 13:19:35;;;;;;;3.03;0.30;;;;;;;;;;5049869;28;20052;-64
2022/03/30 13:22:04;;;;;;;3.78;0.20;;;;;;;;;;5048882;28;20119;-63
2022/03/30 13:24:31;;;;;;;4.40;0.20;;;;;;;;;;5047722;28;20245;-64
2022/03/30 13:27:02;;;;;;;3.28;0.20;;;;;;;;;;5032032;28;20041;-64
2022/03/30 13:29:29;;;;;;;3.33;0.20;;;;;;;;;;5049416;28;20041;-63
2022/03/30 13:31:55;;;;;;;2.92;0.20;;;;;;;;;;5081826;28;20056;-65
2022/03/30 13:34:23;;;;;;;4.20;0.30;;;;;;;;;;5081600;28;20041;-64
2022/03/30 13:36:49;;;;;;;3.55;0.20;;;;;;;;;;5082173;28;20150;-63
2022/03/30 13:39:21;;;;;;;4.57;0.30;;;;;;;;;;5081656;28;20037;-64
2022/03/30 13:41:50;;;;;;;4.63;0.52;;;;;;;;;;5081956;28;20107;-65
2022/03/30 13:44:17;;;;;;;3.72;0.20;;;;;;;;;;5081983;28;20438;-63
2022/03/30 13:46:46;;;;;;;6.03;0.40;;;;;;;;;;5049384;28;20060;-64
2022/03/30 13:49:13;;;;;;;4.50;0.30;;;;;;;;;;5081678;28;20049;-63
2022/03/30 13:51:39;;;;;;;4.85;0.30;;;;;;;;;;5081480;28;20085;-63
2022/03/30 13:54:05;;;;;;;3.47;0.20;;;;;;;;;;5049537;28;20398;-63
2022/03/30 13:56:32;;;;;;;4.03;0.40;;;;;;;;;;5064682;28;20118;-64
2022/03/30 13:58:58;;;;;;;2.90;0.20;;;;;;;;;;5082000;28;20049;-62
2022/03/30 14:01:27;;;;;;;4.63;0.40;;;;;;;;;;5049341;28;20502;-64
2022/03/30 14:03:54;;;;;;;4.22;0.30;;;;;;;;;;5049465;28;20090;-64
2022/03/30 14:06:20;;;;;;;4.10;0.30;;;;;;;;;;5081355;28;20045;-64
2022/03/30 14:08:46;;;;;;;2.75;0.20;;;;;;;;;;5073861;28;20487;-64
2022/03/30 14:11:13;;;;;;;4.15;0.40;;;;;;;;;;5064218;28;20068;-63
2022/03/30 14:13:39;;;;;;;5.60;0.30;;;;;;;;;;5061088;28;20068;-64
2022/03/30 14:16:06;;;;;;;3.15;0.20;;;;;;;;;;5069548;28;20168;-63
2022/03/30 14:18:32;;;;;;;3.38;0.30;;;;;;;;;;5057503;28;20037;-64
2022/03/30 14:20:58;;;;;;;4.28;0.40;;;;;;;;;;5057922;28;20041;-64
2022/03/30 14:23:25;;;;;;;4.60;0.30;;;;;;;;;;5054033;28;20044;-64
2022/03/30 14:25:53;;;;;;;5.53;0.30;;;;;;;;;;5049098;28;20053;-65
2022/03/30 14:28:19;;;;;;;5.03;0.40;;;;;;;;;;5040501;28;20045;-64
2022/03/30 14:30:45;;;;;;;5.60;0.45;;;;;;;;;;5059750;28;20170;-64
2022/03/30 14:33:12;;;;;;;3.38;0.30;;;;;;;;;;5072745;28;20037;-63
2022/03/30 14:35:40;;;;;;;3.28;0.40;;;;;;;;;;5080646;28;20038;-65
2022/03/30 14:38:08;;;;;;;3.25;0.30;;;;;;;;;;5059697;28;20055;-64
2022/03/30 14:40:35;;;;;;;5.50;0.30;;;;;;;;;;5050979;28;20087;-64
2022/03/30 14:43:02;;;;;;;2.95;0.30;;;;;;;;;;5078371;28;20052;-64
2022/03/30 14:45:28;;;;;;;4.28;0.38;;;;;;;;;;5076577;28;20052;-64
2022/03/30 14:47:54;;;;;;;4.03;0.25;;;;;;;;;;5063793;28;20040;-65
2022/03/30 14:50:20;;;;;;;5.57;0.52;;;;;;;;;;5057444;28;20272;-64
2022/03/30 14:52:46;;;;;;;4.75;0.30;;;;;;;;;;5054074;28;20044;-64
2022/03/30 14:55:14;;;;;;;2.92;0.30;;;;;;;;;;5061552;28;20051;-63
2022/03/30 14:57:40;;;;;;;3.10;0.20;;;;;;;;;;5074822;28;20052;-63